Time;durP1;ratioP1;P1;durP2;ratioP2;P2;SDS_P1;SDS_P2;PMS_P1;PMS_P2;Temp;Humidity;BMP_temperature;BMP_pressure;BME280_temperature;BME280_humidity;BME280_pressure;Samples;Min_cycle;Max_cycle;Signal;HPM_P1;HPM_P2
2021/09/13 04:08:14;;;;;;;349.77;329.67;;;11.20;99.90;;;;;;5691273;25;20437;-81
2021/09/13 04:10:51;;;;;;;350.30;331.70;;;11.20;99.90;;;;;;5804005;24;20420;-83
2021/09/13 04:13:22;;;;;;;354.13;334.60;;;11.10;99.90;;;;;;5825632;24;20424;-83
2021/09/13 04:15:52;;;;;;;348.20;329.53;;;11.30;99.90;;;;;;5825489;24;20433;-83
2021/09/13 04:18:19;;;;;;;361.17;341.77;;;11.40;99.90;;;;;;5816860;24;20887;-82
2021/09/13 04:20:48;;;;;;;346.07;328.23;;;11.20;99.90;;;;;;5825541;24;20428;-84
2021/09/13 04:23:16;;;;;;;354.23;334.40;;;11.20;99.90;;;;;;5895170;24;20581;-85
2021/09/13 04:25:43;;;;;;;353.53;334.03;;;11.00;99.90;;;;;;5895909;24;20524;-86
2021/09/13 04:28:14;;;;;;;350.97;330.87;;;11.00;99.90;;;;;;5897341;24;20414;-82
2021/09/13 04:30:46;;;;;;;361.70;341.00;;;11.00;99.90;;;;;;5921111;24;20431;-84
2021/09/13 04:33:13;;;;;;;349.87;330.67;;;11.00;99.90;;;;;;5933696;24;20417;-83
2021/09/13 04:35:40;;;;;;;350.53;330.47;;;11.00;99.90;;;;;;6016585;23;20451;-82
2021/09/13 04:38:07;;;;;;;350.87;329.57;;;10.90;99.90;;;;;;6076479;23;20421;-80
2021/09/13 04:40:35;;;;;;;356.77;336.30;;;10.90;99.90;;;;;;6153957;23;20438;-80
2021/09/13 04:43:02;;;;;;;360.80;340.60;;;10.90;99.90;;;;;;6155160;23;20406;-80
2021/09/13 04:45:29;;;;;;;370.20;347.53;;;11.00;99.90;;;;;;6155987;23;20402;-81
2021/09/13 04:47:56;;;;;;;369.97;349.40;;;11.10;99.90;;;;;;6157399;23;20430;-83
2021/09/13 04:51:26;;;;;;;367.07;346.87;;;11.20;99.90;;;;;;6157011;23;20524;-84
2021/09/13 04:53:53;;;;;;;364.47;342.83;;;11.10;99.90;;;;;;6046007;23;20417;-83
2021/09/13 05:00:22;;;;;;;373.40;349.07;;;11.10;99.90;;;;;;5987191;23;20811;-82
2021/09/13 05:03:38;;;;;;;;;;;;;;;;;;;;;
2021/09/13 05:06:06;;;;;;;361.63;341.07;;;11.10;99.90;;;;;;6008906;23;20999;-79
2021/09/13 05:53:37;;;;;;;;;;;;;;;;;;;;;
2021/09/13 05:56:20;;;;;;;338.70;318.10;;;12.20;99.90;;;;;;5920334;24;20825;-82
2021/09/13 05:58:59;;;;;;;337.27;318.40;;;12.20;99.90;;;;;;6075722;23;20425;-82
2021/09/13 06:01:50;;;;;;;343.63;325.33;;;12.30;99.90;;;;;;6066090;23;20974;-84
2021/09/13 06:04:33;;;;;;;;;;;;;;;;;;;;;
2021/09/13 06:34:18;;;;;;;358.83;338.13;;;13.10;99.90;;;;;;5773488;24;20189;-83
2021/09/13 06:36:47;;;;;;;360.47;339.70;;;13.10;99.90;;;;;;5817158;24;20270;-78
2021/09/13 06:39:31;;;;;;;359.00;338.00;;;13.30;99.90;;;;;;5884768;24;20501;-81
2021/09/13 06:41:59;;;;;;;351.20;331.00;;;13.30;99.90;;;;;;5947888;24;20959;-81
2021/09/13 06:44:27;;;;;;;346.70;327.30;;;13.30;99.90;;;;;;6026860;23;20813;-80
2021/09/13 06:47:03;;;;;;;350.63;329.53;;;13.50;99.90;;;;;;6075387;23;20408;-81
2021/09/13 06:49:33;;;;;;;343.37;324.33;;;13.60;99.90;;;;;;6142029;23;20432;-82
2021/09/13 06:52:07;;;;;;;351.83;330.47;;;13.80;99.90;;;;;;6185465;23;20432;-82
2021/09/13 07:43:29;;;;;;;69.80;65.30;;;15.90;99.90;;;;;;6087837;23;20979;-85
2021/09/13 07:46:03;;;;;;;63.50;59.43;;;16.00;99.90;;;;;;6256861;23;20402;-85
2021/09/13 07:48:30;;;;;;;52.33;48.53;;;16.10;99.90;;;;;;6255596;23;20412;-87
2021/09/13 07:50:57;;;;;;;47.17;43.70;;;16.10;99.90;;;;;;6238308;23;20434;-89
2021/09/13 07:56:34;;;;;;;38.43;35.47;;;16.30;99.90;;;;;;6150424;23;20440;-88
2021/09/13 07:59:23;;;;;;;29.63;27.03;;;16.40;99.90;;;;;;6225481;23;20484;-86
2021/09/13 08:01:50;;;;;;;26.53;23.93;;;16.50;99.90;;;;;;6225102;23;20418;-80
2021/09/13 08:04:16;;;;;;;25.60;23.03;;;16.70;99.90;;;;;;6224855;23;20414;-79
2021/09/13 08:06:43;;;;;;;22.53;18.50;;;16.80;99.90;;;;;;6215345;23;20515;-83
2021/09/13 08:09:10;;;;;;;22.27;19.03;;;16.90;99.90;;;;;;6213929;23;20490;-85
2021/09/13 08:11:37;;;;;;;22.40;20.07;;;16.70;99.90;;;;;;6224906;23;20494;-81
2021/09/13 08:14:05;;;;;;;24.90;22.23;;;17.00;99.90;;;;;;6215380;23;20403;-82
2021/09/13 08:16:32;;;;;;;23.83;21.00;;;17.20;99.90;;;;;;6215248;23;20474;-81
2021/09/13 08:19:00;;;;;;;23.43;20.93;;;17.30;99.90;;;;;;6215240;23;20401;-85
2021/09/13 08:21:28;;;;;;;23.20;17.77;;;17.50;99.90;;;;;;6226977;23;20881;-82
2021/09/13 08:23:55;;;;;;;25.30;19.57;;;17.60;99.90;;;;;;6216108;23;20520;-85
2021/09/13 08:26:23;;;;;;;21.87;18.63;;;17.70;97.70;;;;;;6217272;23;20489;-86
2021/09/13 08:28:49;;;;;;;23.90;17.27;;;17.80;99.90;;;;;;6227179;23;20434;-88
2021/09/13 08:31:18;;;;;;;18.03;15.60;;;18.20;98.10;;;;;;6226677;23;20876;-78
2021/09/13 08:33:46;;;;;;;23.97;17.67;;;18.50;98.60;;;;;;6226931;23;20426;-80
2021/09/13 08:36:13;;;;;;;24.33;16.20;;;18.80;96.70;;;;;;6217173;23;20402;-81
2021/09/13 08:38:40;;;;;;;20.20;16.50;;;18.90;96.10;;;;;;6215061;23;20417;-81
2021/09/13 08:41:07;;;;;;;24.87;17.10;;;19.30;91.40;;;;;;6217012;23;20798;-80
2021/09/13 08:43:34;;;;;;;19.40;17.20;;;19.40;85.50;;;;;;6217095;23;20831;-76
2021/09/13 08:46:06;;;;;;;23.53;17.27;;;19.50;86.30;;;;;;6216570;23;20407;-80
2021/09/13 08:48:38;;;;;;;23.77;17.87;;;19.40;79.10;;;;;;6217094;23;20497;-81
2021/09/13 08:51:18;;;;;;;22.13;17.17;;;19.60;85.70;;;;;;6226852;23;20407;-80
2021/09/13 08:56:52;;;;;;;23.57;18.30;;;19.50;80.10;;;;;;6211417;23;20414;-84
2021/09/13 08:59:32;;;;;;;23.77;17.20;;;18.90;75.20;;;;;;6216439;23;20406;-86
2021/09/13 09:01:59;;;;;;;30.13;18.87;;;18.90;79.60;;;;;;6217486;23;20403;-84
2021/09/13 09:04:30;;;;;;;22.90;18.70;;;18.70;80.40;;;;;;6216861;23;20399;-87
2021/09/13 09:07:07;;;;;;;28.90;18.27;;;18.50;79.80;;;;;;6216818;23;20396;-88
2021/09/13 09:09:34;;;;;;;24.63;18.70;;;18.80;80.50;;;;;;6215543;23;20399;-87
2021/09/13 09:12:05;;;;;;;25.77;19.23;;;19.30;81.10;;;;;;6216950;23;20482;-79
2021/09/13 09:14:40;;;;;;;26.67;20.07;;;19.50;74.10;;;;;;6216841;23;20399;-87
2021/09/13 09:17:11;;;;;;;29.50;21.30;;;19.90;71.50;;;;;;6226549;23;20481;-85
2021/09/13 09:20:13;;;;;;;23.53;19.37;;;20.20;68.80;;;;;;6216864;23;20780;-84
2021/09/13 09:22:42;;;;;;;26.70;18.70;;;20.70;66.00;;;;;;6214154;23;20416;-86
2021/09/13 09:25:11;;;;;;;29.03;21.47;;;21.10;61.50;;;;;;6225420;23;20476;-85
2021/09/13 09:27:53;;;;;;;24.57;19.27;;;21.70;59.70;;;;;;6226311;23;20409;-86
2021/09/13 09:33:47;;;;;;;26.43;22.10;;;21.60;58.30;;;;;;6025865;23;20419;-87
2021/09/13 09:36:14;;;;;;;27.00;21.67;;;21.90;54.70;;;;;;6226306;23;20416;-87
2021/09/13 09:38:43;;;;;;;25.50;22.20;;;22.20;50.80;;;;;;6226147;23;20482;-84
2021/09/13 09:41:12;;;;;;;31.70;22.00;;;21.80;52.80;;;;;;6217068;23;20410;-89
2021/09/13 09:43:51;;;;;;;29.70;21.50;;;21.90;55.00;;;;;;6216715;23;20400;-86
2021/09/13 09:46:21;;;;;;;28.83;22.47;;;22.40;52.50;;;;;;6216652;23;20424;-89
2021/09/13 09:49:04;;;;;;;27.90;21.97;;;22.40;50.80;;;;;;6226226;23;21023;-89
2021/09/13 09:51:34;;;;;;;29.70;22.27;;;22.50;50.80;;;;;;6226652;23;20934;-88
2021/09/13 09:54:13;;;;;;;25.67;19.80;;;22.70;48.70;;;;;;6225239;23;20440;-89
2021/09/13 09:56:47;;;;;;;28.70;21.37;;;23.70;43.90;;;;;;6226501;23;20404;-88
2021/09/13 09:59:17;;;;;;;29.37;21.70;;;23.80;41.70;;;;;;6226110;23;20444;-80
2021/09/13 10:01:45;;;;;;;33.77;21.70;;;24.20;41.10;;;;;;6216321;23;20412;-81
2021/09/13 10:04:14;;;;;;;31.97;23.10;;;24.00;39.00;;;;;;6216342;23;20400;-79
2021/09/13 10:06:42;;;;;;;30.67;22.00;;;23.70;38.20;;;;;;6216527;23;20404;-80
2021/09/13 10:09:10;;;;;;;34.07;23.50;;;23.40;38.50;;;;;;6214970;23;20407;-79
2021/09/13 10:11:40;;;;;;;28.80;22.77;;;23.80;40.90;;;;;;6216022;23;20400;-80
2021/09/13 10:14:08;;;;;;;33.80;23.30;;;23.90;38.90;;;;;;6216223;23;20898;-78
2021/09/13 10:16:37;;;;;;;33.20;23.70;;;24.50;36.90;;;;;;6216318;23;20397;-80
2021/09/13 10:19:04;;;;;;;29.87;22.70;;;25.30;37.60;;;;;;6216140;23;20764;-79
2021/09/13 10:21:31;;;;;;;30.73;24.60;;;25.60;31.10;;;;;;6215853;23;20961;-80
2021/09/13 10:24:01;;;;;;;34.67;24.93;;;25.20;30.00;;;;;;6224490;23;20411;-80
2021/09/13 10:26:28;;;;;;;32.07;25.87;;;24.70;30.40;;;;;;6216012;23;20403;-81
2021/09/13 10:36:27;;;;;;;38.73;25.53;;;24.40;33.60;;;;;;5988234;23;20424;-84
2021/09/13 10:39:13;;;;;;;35.90;27.07;;;23.60;35.40;;;;;;5960531;24;20787;-83
2021/09/13 10:42:04;;;;;;;40.53;27.60;;;22.90;39.70;;;;;;6036936;23;20476;-84
2021/09/13 10:44:43;;;;;;;41.60;27.73;;;22.40;41.00;;;;;;6046560;23;20413;-83
2021/09/13 10:47:56;;;;;;;39.73;27.00;;;22.50;39.30;;;;;;6120058;23;20968;-83
2021/09/13 10:50:45;;;;;;;36.63;25.50;;;22.40;39.50;;;;;;6046523;23;20602;-84
2021/09/13 10:53:46;;;;;;;35.90;26.50;;;22.90;38.90;;;;;;6198218;23;20447;-83
2021/09/13 10:56:25;;;;;;;36.37;26.37;;;22.80;38.10;;;;;;6198785;23;20481;-83
2021/09/13 10:58:59;;;;;;;37.57;27.10;;;23.10;36.10;;;;;;6225895;23;20534;-83
2021/09/13 11:01:44;;;;;;;43.13;27.43;;;23.30;37.30;;;;;;6215953;23;20426;-82
2021/09/13 11:04:12;;;;;;;39.20;26.43;;;23.40;34.30;;;;;;6215543;23;20974;-85
2021/09/13 11:06:50;;;;;;;38.70;26.13;;;23.70;31.60;;;;;;6215959;23;20727;-84
2021/09/13 11:09:21;;;;;;;33.77;25.67;;;23.30;35.80;;;;;;6214134;23;20909;-83
2021/09/13 11:11:57;;;;;;;32.77;24.93;;;23.70;31.40;;;;;;6216017;23;20419;-83
2021/09/13 11:14:25;;;;;;;32.50;24.43;;;23.40;31.90;;;;;;6215910;23;20426;-83
2021/09/13 11:17:02;;;;;;;32.53;22.73;;;24.30;30.00;;;;;;6215907;23;20409;-83
2021/09/13 11:19:48;;;;;;;33.17;23.43;;;25.00;26.10;;;;;;6215697;23;20439;-84
2021/09/13 11:22:50;;;;;;;28.87;22.10;;;25.40;25.60;;;;;;6215717;23;20396;-87
2021/09/13 11:29:21;;;;;;;;;;;;;;;;;;;;;
2021/09/13 11:35:33;;;;;;;25.77;19.80;;;26.00;20.50;;;;;;6225410;23;20400;-86
2021/09/13 11:38:34;;;;;;;26.37;19.10;;;26.70;18.20;;;;;;6210840;23;20451;-87
2021/09/13 11:42:00;;;;;;;26.10;19.50;;;27.10;17.00;;;;;;6225009;23;20414;-88
2021/09/13 11:44:38;;;;;;;24.10;18.20;;;28.60;10.20;;;;;;6225729;23;20420;-88
2021/09/13 11:47:12;;;;;;;23.30;17.67;;;28.00;11.10;;;;;;6225324;23;20408;-87
2021/09/13 11:50:08;;;;;;;22.13;16.63;;;28.50;9.50;;;;;;6225570;23;20378;-91
2021/09/13 12:15:18;;;;;;;19.23;13.30;;;28.00;3.70;;;;;;6009633;23;20410;-88
2021/09/13 12:30:58;;;;;;;17.93;13.50;;;28.20;2.70;;;;;;5895391;23;20476;-87
2021/09/13 12:33:54;;;;;;;16.63;13.33;;;27.60;1.00;;;;;;6105545;23;20408;-87
2021/09/13 12:36:49;;;;;;;;;;;;;;;;;;;;;
2021/09/13 12:39:23;;;;;;;15.97;11.67;;;28.00;1.90;;;;;;6225628;23;20427;-86
2021/09/13 12:41:50;;;;;;;15.23;11.40;;;27.00;5.40;;;;;;6217149;23;20498;-82
2021/09/13 12:45:01;;;;;;;;;;;;;;;;;;;;;
2021/09/13 13:07:36;;;;;;;16.40;13.57;;;28.60;1.00;;;;;;5806626;24;20752;-91
2021/09/13 13:10:11;;;;;;;14.07;11.03;;;28.20;1.00;;;;;;6021746;23;21021;-91
2021/09/13 13:12:39;;;;;;;17.90;11.97;;;27.60;1.00;;;;;;6225409;23;20415;-92
2021/09/13 13:15:09;;;;;;;13.90;10.07;;;27.50;1.00;;;;;;6225519;23;20810;-92
2021/09/13 13:17:40;;;;;;;12.53;10.47;;;27.00;1.00;;;;;;6215429;23;20499;-93
2021/09/13 13:20:08;;;;;;;15.23;10.17;;;27.60;1.00;;;;;;6226811;23;20483;-89
2021/09/13 13:22:36;;;;;;;14.27;9.90;;;27.20;1.00;;;;;;6225917;23;20454;-89
2021/09/13 13:25:07;;;;;;;14.80;10.50;;;27.40;1.00;;;;;;6214090;23;20911;-91
2021/09/13 13:36:44;;;;;;;12.10;9.43;;;28.30;1.00;;;;;;6225447;23;20787;-88
2021/09/13 13:39:40;;;;;;;13.37;9.20;;;27.60;1.00;;;;;;6215658;23;20434;-89
2021/09/13 13:42:12;;;;;;;15.20;9.60;;;27.10;1.00;;;;;;6225744;23;20418;-91
2021/09/13 13:48:49;;;;;;;14.40;9.77;;;27.40;1.00;;;;;;5989471;24;20609;-87
2021/09/13 13:59:05;;;;;;;14.27;10.20;;;26.30;1.00;;;;;;6064429;23;20455;-88
2021/09/13 14:46:51;;;;;;;;;;;;;;;;;;;;;
2021/09/13 14:49:20;;;;;;;18.00;10.60;;;26.20;1.00;;;;;;5968787;24;20897;-90
2021/09/13 14:51:47;;;;;;;14.43;10.10;;;26.00;3.70;;;;;;6083292;23;20503;-91
2021/09/13 14:54:15;;;;;;;12.40;9.20;;;25.30;3.50;;;;;;6102622;23;20447;-92
2021/09/13 14:57:07;;;;;;;17.67;10.80;;;24.90;6.20;;;;;;6123360;23;20489;-90
2021/09/13 16:54:20;;;;;;;15.23;10.20;;;21.10;23.60;;;;;;5851179;24;20228;-90
2021/09/13 16:57:04;;;;;;;14.77;9.57;;;20.80;25.50;;;;;;5994598;23;20441;-89
2021/09/13 17:00:02;;;;;;;15.90;9.13;;;20.60;27.40;;;;;;6104963;23;20470;-90
2021/09/13 17:02:36;;;;;;;13.20;10.03;;;20.30;28.40;;;;;;6063884;23;20443;-90
2021/09/13 17:09:08;;;;;;;;;;;;;;;;;;;;;
2021/09/13 17:11:51;;;;;;;14.20;9.47;;;19.60;32.80;;;;;;6186177;23;20442;-86
2021/09/13 17:14:42;;;;;;;;;;;;;;;;;;;;;
2021/09/13 17:17:31;;;;;;;;;;;;;;;;;;;;;
2021/09/13 17:20:14;;;;;;;17.07;9.57;;;19.10;38.30;;;;;;6196644;23;20477;-87
2021/09/13 19:04:28;;;;;;;13.33;9.07;;;15.60;82.10;;;;;;6145279;23;20419;-90
2021/09/13 19:13:29;;;;;;;13.07;10.80;;;15.60;81.40;;;;;;6162877;23;20418;-84
2021/09/13 19:20:13;;;;;;;16.00;10.93;;;15.60;82.80;;;;;;6040145;23;20434;-93
2021/09/13 19:23:04;;;;;;;11.17;9.97;;;15.70;81.20;;;;;;6095420;23;20452;-85
2021/09/13 19:28:20;;;;;;;14.83;11.50;;;15.70;80.10;;;;;;6181766;23;20406;-89
2021/09/13 19:31:02;;;;;;;14.93;11.93;;;15.60;82.00;;;;;;6185745;23;20409;-86
2021/09/13 19:46:46;;;;;;;15.93;13.23;;;15.20;89.40;;;;;;5889995;24;20412;-88
2021/09/13 19:52:40;;;;;;;19.10;16.30;;;15.10;93.10;;;;;;6052874;23;20735;-88
2021/09/13 20:02:25;;;;;;;18.13;16.57;;;15.10;94.70;;;;;;5951911;24;20431;-89
2021/09/13 20:05:45;;;;;;;;;;;;;;;;;;;;;
2021/09/13 20:20:53;;;;;;;33.07;30.67;;;14.90;99.90;;;;;;6073113;23;20560;-89
2021/09/13 20:23:31;;;;;;;35.77;32.67;;;14.90;99.90;;;;;;6136187;23;20929;-95
2021/09/13 20:26:06;;;;;;;30.50;28.10;;;14.80;99.90;;;;;;6137137;23;20417;-96
2021/09/13 20:29:07;;;;;;;33.63;30.93;;;14.70;99.90;;;;;;6136397;23;20418;-93
2021/09/13 20:52:53;;;;;;;;;;;;;;;;;;;;;
2021/09/13 21:31:15;;;;;;;63.00;59.27;;;14.20;99.90;;;;;;6134479;23;20447;-89
2021/09/13 21:54:36;;;;;;;135.77;128.77;;;13.60;99.90;;;;;;5990129;24;21014;-95
2021/09/13 22:07:19;;;;;;;;;;;;;;;;;;;;;
2021/09/13 22:31:03;;;;;;;154.27;146.57;;;12.80;99.90;;;;;;6065775;23;20412;-92
2021/09/13 22:50:41;;;;;;;198.10;187.63;;;12.60;99.90;;;;;;6195393;23;20422;-94
2021/09/13 22:54:12;;;;;;;207.87;196.87;;;12.50;99.90;;;;;;6225958;23;20436;-93
2021/09/13 22:57:23;;;;;;;;;;;;;;;;;;;;;
2021/09/13 23:13:58;;;;;;;225.53;214.23;;;12.50;99.90;;;;;;6191206;23;20415;-93
2021/09/13 23:24:00;;;;;;;217.07;205.77;;;12.20;99.90;;;;;;6192723;23;20436;-93
2021/09/13 23:36:49;;;;;;;;;;;;;;;;;;;;;
2021/09/13 23:40:02;;;;;;;;;;;;;;;;;;;;;
2021/09/13 23:43:20;;;;;;;;;;;;;;;;;;;;;
2021/09/13 23:46:31;;;;;;;;;;;;;;;;;;;;;
2021/09/13 23:50:02;;;;;;;;;;;;;;;;;;;;;
